createdAt,value
2022-09-26T00:01:43.444Z,71.14
2022-09-26T00:04:22.507Z,71.46
2022-09-26T00:06:52.039Z,70.98
2022-09-26T00:09:21.154Z,70.58
2022-09-26T00:11:49.497Z,70.27
2022-09-26T00:14:20.718Z,70.35
2022-09-26T00:16:48.825Z,70.49
2022-09-26T00:19:18.950Z,70.55
2022-09-26T00:21:46.985Z,70.18
2022-09-26T00:24:15.701Z,70.25
2022-09-26T00:26:43.910Z,70.06
2022-09-26T00:29:14.201Z,69.64
2022-09-26T00:31:45.567Z,69.73
2022-09-26T00:34:15.480Z,69.32
2022-09-26T00:36:45.219Z,69.46
2022-09-26T00:39:16.474Z,69.08
2022-09-26T00:41:46.028Z,68.78
2022-09-26T00:44:43.444Z,68.64
2022-09-26T00:47:39.743Z,68.81
2022-09-26T00:50:15.483Z,68.80
2022-09-26T00:52:51.131Z,68.59
2022-09-26T00:55:23.527Z,68.35
2022-09-26T00:57:57.952Z,68.67
2022-09-26T01:00:26.236Z,68.73
2022-09-26T01:02:55.243Z,68.25
2022-09-26T01:05:24.916Z,68.37
2022-09-26T01:07:56.770Z,68.61
2022-09-26T01:10:27.343Z,69.28
2022-09-26T01:12:56.329Z,69.39
2022-09-26T01:15:24.815Z,68.67
2022-09-26T01:17:52.967Z,69.39
2022-09-26T01:20:35.026Z,68.91
2022-09-26T01:23:56.128Z,69.19
2022-09-26T01:26:46.396Z,69.55
2022-09-26T01:29:54.313Z,69.80
2022-09-26T01:32:51.038Z,70.07
2022-09-26T01:35:39.899Z,69.91
2022-09-26T01:38:23.645Z,70.22
2022-09-26T01:41:12.613Z,71.08
2022-09-26T01:43:48.174Z,70.32
2022-09-26T01:46:26.890Z,70.07
2022-09-26T01:49:02.367Z,69.80
2022-09-26T01:51:39.587Z,70.03
2022-09-26T01:54:13.775Z,69.96
2022-09-26T01:56:43.034Z,69.93
2022-09-26T01:59:17.786Z,70.15
2022-09-26T02:01:54.120Z,70.23
2022-09-26T02:04:29.809Z,70.40
2022-09-26T02:07:02.265Z,69.87
2022-09-26T02:09:39.242Z,69.75
2022-09-26T02:12:16.143Z,69.59
2022-09-26T02:14:48.338Z,69.46
2022-09-26T02:17:22.447Z,69.58
2022-09-26T02:19:57.474Z,70.10
2022-09-26T02:22:28.288Z,70.49
2022-09-26T02:24:56.767Z,70.52
2022-09-26T02:27:27.092Z,70.12
2022-09-26T02:29:55.787Z,70.16
2022-09-26T02:32:28.720Z,70.47
2022-09-26T02:34:59.413Z,70.19
2022-09-26T02:37:30.958Z,70.01
2022-09-26T02:39:59.131Z,69.96
2022-09-26T02:42:36.546Z,70.82
2022-09-26T02:45:22.266Z,70.13
2022-09-26T02:48:19.820Z,70.17
2022-09-26T02:51:11.654Z,70.06
2022-09-26T02:54:05.052Z,69.73
2022-09-26T02:57:03.750Z,69.59
2022-09-26T02:59:45.194Z,69.60
2022-09-26T03:02:17.882Z,69.95
2022-09-26T03:05:04.381Z,69.47
2022-09-26T03:07:40.902Z,69.61
2022-09-26T03:10:11.499Z,69.65
2022-09-26T03:12:40.661Z,69.42
2022-09-26T03:15:11.870Z,69.53
2022-09-26T03:17:46.631Z,69.67
2022-09-26T03:20:19.933Z,69.15
2022-09-26T03:22:50.380Z,69.62
2022-09-26T03:25:23.504Z,69.79
2022-09-26T03:28:00.797Z,70.13
2022-09-26T03:30:30.662Z,69.76
2022-09-26T03:33:24.943Z,70.05
2022-09-26T03:35:53.096Z,70.29
2022-09-26T03:38:23.822Z,69.69
2022-09-26T03:41:03.333Z,69.30
2022-09-26T03:43:54.592Z,69.59
2022-09-26T03:46:25.124Z,69.31
2022-09-26T03:48:53.216Z,68.75
2022-09-26T03:51:21.613Z,69.04
2022-09-26T03:53:51.083Z,69.08
2022-09-26T03:56:23.339Z,68.82
2022-09-26T03:58:51.400Z,69.51
2022-09-26T04:01:21.674Z,69.53
2022-09-26T04:03:51.547Z,69.16
2022-09-26T04:06:21.428Z,69.07
2022-09-26T04:08:53.678Z,69.58
2022-09-26T04:11:24.835Z,69.89
2022-09-26T04:13:54.530Z,68.98
2022-09-26T04:16:30.413Z,69.09
2022-09-26T04:19:05.386Z,69.21
2022-09-26T04:21:36.037Z,69.17
2022-09-26T04:24:06.193Z,68.90
2022-09-26T04:26:34.452Z,68.42
2022-09-26T04:29:02.546Z,69.17
2022-09-26T04:31:51.289Z,68.75
2022-09-26T04:34:27.295Z,69.17
2022-09-26T04:36:59.308Z,68.52
2022-09-26T04:39:28.812Z,68.56
2022-09-26T04:41:58.405Z,68.38
2022-09-26T04:44:26.440Z,68.71
2022-09-26T04:46:54.975Z,68.62
2022-09-26T04:49:31.028Z,68.52
2022-09-26T04:51:59.079Z,68.11
2022-09-26T04:54:28.502Z,67.83
2022-09-26T04:57:00.143Z,67.67
2022-09-26T04:59:31.355Z,67.84
2022-09-26T05:02:08.448Z,68.27
2022-09-26T05:04:42.086Z,68.05
2022-09-26T05:07:10.265Z,68.88
2022-09-26T05:09:42.259Z,68.38
2022-09-26T05:12:17.210Z,68.51
2022-09-26T05:14:48.678Z,68.54
2022-09-26T05:17:16.772Z,68.07
2022-09-26T05:19:47.252Z,67.69
2022-09-26T05:22:23.450Z,68.14
2022-09-26T05:25:11.432Z,67.03
2022-09-26T05:27:40.222Z,68.06
2022-09-26T05:30:09.629Z,68.19
2022-09-26T05:32:37.716Z,68.12
2022-09-26T05:35:07.215Z,68.62
2022-09-26T05:37:40.647Z,69.01
2022-09-26T05:40:29.122Z,68.49
2022-09-26T05:43:07.864Z,68.60
2022-09-26T05:45:36.596Z,69.13
2022-09-26T05:48:06.227Z,68.63
2022-09-26T05:50:35.415Z,68.57
2022-09-26T05:53:04.583Z,69.20
2022-09-26T05:55:37.442Z,69.08
2022-09-26T05:58:24.534Z,69.04
2022-09-26T06:01:13.474Z,69.55
2022-09-26T06:03:44.815Z,69.56
2022-09-26T06:06:21.438Z,68.83
2022-09-26T06:08:55.489Z,69.25
2022-09-26T06:11:53.521Z,68.81
2022-09-26T06:14:26.512Z,69.17
2022-09-26T06:16:55.222Z,69.11
2022-09-26T06:19:23.507Z,68.88
2022-09-26T06:21:51.899Z,69.12
2022-09-26T06:24:20.754Z,69.25
2022-09-26T06:26:53.628Z,69.00
2022-09-26T06:29:21.720Z,69.11
2022-09-26T06:31:50.517Z,69.42
2022-09-26T06:34:41.488Z,69.30
2022-09-26T06:37:28.752Z,68.92
2022-09-26T06:39:59.432Z,69.34
2022-09-26T06:42:29.084Z,69.11
2022-09-26T06:45:17.697Z,69.53
2022-09-26T06:48:08.686Z,69.06
2022-09-26T06:51:00.532Z,69.27
2022-09-26T06:53:30.862Z,69.46
2022-09-26T06:56:00.513Z,69.21
2022-09-26T06:58:37.023Z,69.70
2022-09-26T07:01:10.708Z,70.35
2022-09-26T07:03:51.032Z,69.80
2022-09-26T07:06:29.387Z,70.04
2022-09-26T07:09:03.095Z,69.86
2022-09-26T07:12:12.982Z,69.86
2022-09-26T07:14:37.585Z,70.08
2022-09-26T07:17:16.514Z,69.77
2022-09-26T07:19:53.463Z,70.16
2022-09-26T07:22:45.353Z,69.96
2022-09-26T07:25:14.741Z,69.88
2022-09-26T07:27:43.053Z,69.18
2022-09-26T07:30:13.879Z,69.57
2022-09-26T07:32:52.382Z,69.12
2022-09-26T07:35:38.857Z,69.06
2022-09-26T07:38:07.156Z,68.91
2022-09-26T07:40:35.770Z,69.00
2022-09-26T07:43:19.012Z,68.76
2022-09-26T07:46:09.723Z,68.92
2022-09-26T07:48:56.631Z,69.03
2022-09-26T07:52:00.571Z,68.71
2022-09-26T07:54:45.347Z,68.82
2022-09-26T07:57:34.146Z,68.43
2022-09-26T08:00:18.366Z,67.45
2022-09-26T08:03:05.091Z,67.63
2022-09-26T08:05:35.748Z,67.73
2022-09-26T08:08:04.944Z,67.33
2022-09-26T08:10:51.495Z,66.57
2022-09-26T08:13:47.587Z,65.88
2022-09-26T08:16:19.566Z,66.63
2022-09-26T08:18:49.986Z,66.91
2022-09-26T08:21:18.906Z,66.31
2022-09-26T08:23:47.774Z,65.95
2022-09-26T08:26:44.051Z,65.96
2022-09-26T08:29:17.885Z,65.67
2022-09-26T08:31:47.918Z,66.16
2022-09-26T08:34:22.689Z,66.11
2022-09-26T08:37:16.081Z,65.82
2022-09-26T08:40:03.248Z,65.61
2022-09-26T08:43:04.272Z,65.06
2022-09-26T08:46:12.772Z,65.04
2022-09-26T08:49:18.269Z,65.35
2022-09-26T08:51:51.476Z,64.31
2022-09-26T08:54:24.858Z,64.19
2022-09-26T08:56:58.516Z,63.02
2022-09-26T08:59:32.881Z,62.92
2022-09-26T09:02:19.596Z,63.15
2022-09-26T09:05:04.513Z,61.88
2022-09-26T09:07:36.775Z,61.40
2022-09-26T09:10:09.498Z,60.92
2022-09-26T09:13:15.468Z,60.12
2022-09-26T09:16:11.917Z,59.08
2022-09-26T09:19:19.669Z,58.96
2022-09-26T09:22:27.679Z,59.32
2022-09-26T09:25:14.124Z,60.35
2022-09-26T09:28:01.242Z,59.39
2022-09-26T09:30:41.883Z,57.93
2022-09-26T09:33:33.995Z,58.64
2022-09-26T09:36:25.943Z,57.14
2022-09-26T09:39:34.353Z,55.11
2022-09-26T09:42:13.158Z,55.50
2022-09-26T09:44:47.388Z,55.75
2022-09-26T09:47:18.346Z,54.43
2022-09-26T09:49:49.933Z,53.06
2022-09-26T09:52:43.442Z,54.46
2022-09-26T09:55:32.807Z,54.27
2022-09-26T09:58:29.786Z,54.46
2022-09-26T10:01:10.604Z,53.74
2022-09-26T10:03:48.177Z,53.73
2022-09-26T10:06:45.565Z,53.77
2022-09-26T10:09:35.391Z,53.38
2022-09-26T10:12:30.613Z,53.92
2022-09-26T10:15:29.411Z,54.45
2022-09-26T10:18:24.852Z,54.13
2022-09-26T10:21:19.014Z,55.22
2022-09-26T10:23:50.385Z,53.98
2022-09-26T10:26:39.391Z,53.40
2022-09-26T10:29:25.841Z,54.37
2022-09-26T10:32:00.256Z,54.07
2022-09-26T10:34:30.581Z,54.87
2022-09-26T10:37:14.686Z,53.57
2022-09-26T10:40:00.686Z,53.45
2022-09-26T10:42:32.323Z,54.75
2022-09-26T10:45:15.869Z,55.05
2022-09-26T10:48:13.829Z,55.10
2022-09-26T10:51:07.437Z,55.67
2022-09-26T10:54:07.864Z,55.25
2022-09-26T10:56:43.995Z,55.51
2022-09-26T10:59:14.781Z,55.35
2022-09-26T11:01:56.445Z,55.33
2022-09-26T11:04:47.190Z,55.24
2022-09-26T11:07:39.932Z,54.56
2022-09-26T11:10:36.324Z,53.29
2022-09-26T11:13:47.894Z,55.40
2022-09-26T11:16:19.238Z,55.21
2022-09-26T11:19:02.472Z,55.21
2022-09-26T11:21:42.637Z,50.99
2022-09-26T11:24:19.425Z,51.97
2022-09-26T11:27:04.415Z,52.03
2022-09-26T11:29:44.362Z,50.48
2022-09-26T11:32:24.838Z,50.65
2022-09-26T11:35:03.188Z,51.73
2022-09-26T11:38:05.584Z,51.92
2022-09-26T11:41:12.651Z,53.98
2022-09-26T11:43:54.631Z,55.37
2022-09-26T11:47:05.991Z,57.51
2022-09-26T11:50:08.993Z,58.00
2022-09-26T11:53:20.562Z,58.62
2022-09-26T11:56:06.064Z,60.89
2022-09-26T11:58:43.540Z,63.00
2022-09-26T12:01:24.123Z,63.34
2022-09-26T12:04:26.852Z,62.25
2022-09-26T12:07:01.854Z,61.21
2022-09-26T12:10:09.524Z,59.75
2022-09-26T12:12:50.025Z,57.55
2022-09-26T12:15:27.775Z,56.31
2022-09-26T12:18:13.731Z,55.49
2022-09-26T12:21:08.353Z,55.11
2022-09-26T12:23:44.807Z,55.22
2022-09-26T12:26:22.574Z,55.00
2022-09-26T12:29:21.240Z,54.06
2022-09-26T12:32:27.777Z,54.69
2022-09-26T12:35:29.628Z,55.83
2022-09-26T12:38:24.528Z,54.91
2022-09-26T12:41:14.271Z,54.97
2022-09-26T12:44:04.538Z,53.55
2022-09-26T12:46:53.215Z,54.23
2022-09-26T12:49:49.215Z,54.21
2022-09-26T12:52:35.084Z,54.05
2022-09-26T12:55:24.423Z,52.94
2022-09-26T12:58:16.813Z,51.63
2022-09-26T13:00:57.734Z,51.69
2022-09-26T13:03:56.573Z,51.15
2022-09-26T13:07:14.761Z,53.20
2022-09-26T13:10:12.350Z,52.79
2022-09-26T13:13:11.117Z,52.44
2022-09-26T13:15:49.749Z,52.69
2022-09-26T13:18:27.753Z,52.00
2022-09-26T13:21:02.960Z,52.37
2022-09-26T13:23:38.426Z,52.17
2022-09-26T13:26:15.042Z,51.48
2022-09-26T13:29:12.929Z,50.84
2022-09-26T13:31:42.070Z,51.15
2022-09-26T13:34:18.748Z,52.57
2022-09-26T13:36:47.178Z,53.00
2022-09-26T13:39:26.873Z,52.43
2022-09-26T13:42:01.861Z,52.58
2022-09-26T13:44:56.458Z,52.01
2022-09-26T13:47:36.357Z,52.49
2022-09-26T13:50:23.329Z,53.58
2022-09-26T13:53:06.836Z,53.42
2022-09-26T13:55:36.484Z,53.54
2022-09-26T13:58:19.070Z,54.47
2022-09-26T14:00:54.535Z,54.19
2022-09-26T14:03:42.435Z,53.58
2022-09-26T14:06:34.586Z,54.68
2022-09-26T14:09:23.771Z,55.29
2022-09-26T14:12:17.501Z,55.13
2022-09-26T14:15:07.220Z,54.89
2022-09-26T14:18:24.318Z,55.15
2022-09-26T14:21:15.506Z,54.27
2022-09-26T14:23:50.881Z,54.91
2022-09-26T14:26:27.177Z,54.69
2022-09-26T14:28:57.107Z,55.09
2022-09-26T14:31:39.931Z,54.42
2022-09-26T14:34:27.792Z,54.83
2022-09-26T14:37:18.888Z,54.29
2022-09-26T14:39:47.722Z,54.03
2022-09-26T14:42:23.921Z,54.56
2022-09-26T14:44:59.013Z,53.40
2022-09-26T14:47:31.721Z,53.66
2022-09-26T14:53:25.811Z,53.10
2022-09-26T14:56:00.101Z,53.50
2022-09-26T14:58:46.761Z,54.22
2022-09-26T15:01:20.947Z,54.75
2022-09-26T15:04:02.871Z,54.13
2022-09-26T15:06:37.094Z,53.82
2022-09-26T15:09:11.819Z,53.17
2022-09-26T15:11:45.246Z,53.26
2022-09-26T15:14:26.045Z,54.33
2022-09-26T15:16:57.540Z,54.87
2022-09-26T15:19:32.710Z,54.55
2022-09-26T15:22:05.745Z,54.65
2022-09-26T15:24:36.622Z,54.77
2022-09-26T15:27:12.369Z,54.50
2022-09-26T15:29:47.212Z,55.49
2022-09-26T15:32:20.150Z,55.14
2022-09-26T15:34:49.827Z,54.94
2022-09-26T15:37:23.378Z,55.14
2022-09-26T15:39:52.467Z,55.46
2022-09-26T15:42:47.132Z,54.87
2022-09-26T15:45:28.743Z,55.25
2022-09-26T15:48:04.860Z,55.36
2022-09-26T15:50:41.949Z,55.57
2022-09-26T15:53:24.265Z,56.09
2022-09-26T15:55:57.961Z,55.82
2022-09-26T15:58:35.642Z,55.48
2022-09-26T16:05:23.353Z,56.29
2022-09-26T16:07:53.956Z,55.96
2022-09-26T16:10:28.383Z,56.67
2022-09-26T16:12:59.561Z,55.85
2022-09-26T16:15:30.950Z,56.29
2022-09-26T16:17:59.955Z,56.21
2022-09-26T16:20:31.550Z,55.24
2022-09-26T16:23:05.347Z,55.83
2022-09-26T16:25:53.517Z,55.54
2022-09-26T16:28:42.443Z,55.63
2022-09-26T16:31:27.013Z,55.52
2022-09-26T16:33:56.817Z,56.30
2022-09-26T16:36:28.322Z,56.68
2022-09-26T16:39:01.798Z,56.40
2022-09-26T16:42:00.572Z,56.44
2022-09-26T16:44:33.481Z,56.71
2022-09-26T16:47:07.267Z,56.43
2022-09-26T16:49:48.210Z,55.92
2022-09-26T16:52:30.273Z,56.18
2022-09-26T16:55:01.899Z,56.31
2022-09-26T16:57:33.203Z,56.57
2022-09-26T17:00:24.151Z,56.63
2022-09-26T17:02:52.292Z,57.06
2022-09-26T17:05:22.542Z,57.54
2022-09-26T17:07:51.294Z,56.93
2022-09-26T17:10:23.985Z,57.31
2022-09-26T17:12:53.199Z,57.38
2022-09-26T17:15:29.070Z,57.54
2022-09-26T17:17:58.230Z,57.63
2022-09-26T17:20:26.771Z,57.91
2022-09-26T17:22:55.679Z,58.59
2022-09-26T17:25:25.889Z,58.64
2022-09-26T17:27:59.568Z,58.47
2022-09-26T17:30:27.879Z,58.10
2022-09-26T17:32:56.234Z,58.18
2022-09-26T17:35:27.720Z,58.70
2022-09-26T17:37:56.850Z,58.63
2022-09-26T17:40:29.513Z,58.27
2022-09-26T17:43:00.751Z,58.95
2022-09-26T17:45:32.957Z,58.37
2022-09-26T17:48:05.391Z,58.06
2022-09-26T17:50:36.400Z,57.99
2022-09-26T17:53:07.733Z,58.42
2022-09-26T17:55:37.369Z,58.15
2022-09-26T17:58:09.294Z,58.24
2022-09-26T18:00:38.822Z,57.90
2022-09-26T18:03:20.365Z,59.13
2022-09-26T18:05:48.524Z,58.14
2022-09-26T18:08:22.053Z,58.29
2022-09-26T18:10:55.009Z,58.24
2022-09-26T18:13:26.834Z,58.30
2022-09-26T18:15:57.543Z,58.16
2022-09-26T18:18:28.764Z,57.63
2022-09-26T18:20:58.805Z,57.98
2022-09-26T18:23:36.563Z,57.59
2022-09-26T18:26:08.167Z,57.92
2022-09-26T18:28:39.549Z,57.92
2022-09-26T18:31:11.215Z,57.72
2022-09-26T18:33:39.269Z,58.01
2022-09-26T18:36:12.718Z,57.82
2022-09-26T18:38:41.307Z,57.78
2022-09-26T18:41:12.324Z,57.80
2022-09-26T18:43:42.328Z,57.51
2022-09-26T18:46:14.171Z,57.27
2022-09-26T18:48:42.412Z,57.01
2022-09-26T18:51:11.991Z,56.97
2022-09-26T18:53:41.029Z,57.18
2022-09-26T18:56:29.060Z,57.89
2022-09-26T18:58:57.815Z,57.42
2022-09-26T19:01:33.074Z,56.84
2022-09-26T19:04:07.301Z,56.71
2022-09-26T19:06:40.628Z,57.02
2022-09-26T19:09:14.515Z,56.22
2022-09-26T19:11:44.808Z,56.90
2022-09-26T19:14:16.252Z,56.98
2022-09-26T19:16:45.926Z,56.66
2022-09-26T19:19:15.585Z,56.35
2022-09-26T19:21:47.408Z,56.50
2022-09-26T19:24:22.610Z,56.29
2022-09-26T19:26:56.552Z,56.98
2022-09-26T19:29:33.610Z,57.54
2022-09-26T19:32:02.864Z,57.65
2022-09-26T19:34:32.864Z,57.70
2022-09-26T19:37:03.891Z,58.01
2022-09-26T19:39:32.719Z,57.89
2022-09-26T19:42:05.542Z,58.07
2022-09-26T19:44:34.191Z,58.15
2022-09-26T19:47:03.778Z,58.87
2022-09-26T19:49:32.761Z,58.40
2022-09-26T19:52:02.435Z,58.09
2022-09-26T19:54:30.571Z,57.71
2022-09-26T19:56:58.787Z,58.29
2022-09-26T19:59:28.137Z,58.21
2022-09-26T20:01:56.350Z,58.33
2022-09-26T20:04:24.438Z,58.10
2022-09-26T20:06:52.438Z,58.16
2022-09-26T20:09:21.299Z,58.34
2022-09-26T20:11:49.534Z,58.30
2022-09-26T20:14:26.601Z,58.93
2022-09-26T20:16:59.235Z,58.28
2022-09-26T20:19:33.186Z,59.06
2022-09-26T20:22:03.231Z,59.12
2022-09-26T20:24:34.432Z,58.87
2022-09-26T20:27:06.996Z,59.58
2022-09-26T20:29:50.427Z,59.30
2022-09-26T20:32:20.301Z,59.78
2022-09-26T20:34:49.449Z,59.37
2022-09-26T20:37:17.888Z,59.39
2022-09-26T20:39:46.930Z,59.45
2022-09-26T20:42:19.837Z,59.40
2022-09-26T20:44:54.777Z,60.14
2022-09-26T20:47:24.426Z,59.89
2022-09-26T20:49:57.201Z,59.46
2022-09-26T20:52:27.947Z,59.13
2022-09-26T20:54:57.914Z,59.87
2022-09-26T20:57:26.258Z,59.70
2022-09-26T20:59:54.278Z,59.70
2022-09-26T21:02:31.052Z,59.48
2022-09-26T21:05:01.713Z,59.36
2022-09-26T21:07:32.369Z,58.89
2022-09-26T21:10:00.488Z,58.73
2022-09-26T21:12:28.537Z,59.23
2022-09-26T21:14:56.542Z,57.78
2022-09-26T21:17:29.345Z,58.50
2022-09-26T21:19:57.746Z,57.70
2022-09-26T21:22:54.798Z,57.55
2022-09-26T21:25:25.171Z,56.92
2022-09-26T21:27:57.828Z,57.21
2022-09-26T21:30:26.344Z,57.25
2022-09-26T21:32:59.218Z,57.84
2022-09-26T21:35:30.914Z,57.66
2022-09-26T21:38:01.559Z,57.93
2022-09-26T21:40:32.905Z,57.76
2022-09-26T21:43:07.351Z,57.63
2022-09-26T21:45:35.534Z,58.10
2022-09-26T21:48:05.314Z,59.13
2022-09-26T21:50:33.603Z,59.86
2022-09-26T21:53:08.441Z,59.09
2022-09-26T21:55:39.935Z,60.17
2022-09-26T21:58:12.989Z,59.36
2022-09-26T22:00:42.829Z,60.05
2022-09-26T22:03:12.212Z,60.56
2022-09-26T22:05:40.558Z,60.73
2022-09-26T22:08:08.683Z,60.99
2022-09-26T22:10:38.337Z,60.55
2022-09-26T22:13:06.856Z,60.85
2022-09-26T22:15:34.897Z,61.69
2022-09-26T22:18:03.315Z,61.64
2022-09-26T22:20:32.643Z,62.88
2022-09-26T22:23:00.819Z,62.41
2022-09-26T22:25:28.806Z,61.88
2022-09-26T22:27:56.835Z,62.08
2022-09-26T22:30:24.881Z,62.08
2022-09-26T22:32:52.955Z,62.03
2022-09-26T22:35:21.914Z,61.88
2022-09-26T22:37:51.297Z,60.91
2022-09-26T22:40:19.439Z,61.40
2022-09-26T22:42:47.437Z,61.31
2022-09-26T22:45:15.664Z,62.00
2022-09-26T22:47:43.635Z,62.90
2022-09-26T22:50:11.659Z,62.38
2022-09-26T22:52:40.281Z,62.38
2022-09-26T22:55:10.304Z,62.51
2022-09-26T22:57:38.332Z,62.30
2022-09-26T23:00:08.340Z,63.90
2022-09-26T23:02:36.546Z,63.15
2022-09-26T23:05:05.149Z,63.45
2022-09-26T23:07:33.150Z,63.17
2022-09-26T23:10:01.326Z,63.33
2022-09-26T23:12:32.276Z,63.74
2022-09-26T23:15:00.743Z,63.46
2022-09-26T23:17:28.963Z,63.97
2022-09-26T23:19:57.103Z,64.01
2022-09-26T23:22:25.171Z,64.60
2022-09-26T23:24:53.175Z,64.88
2022-09-26T23:27:21.611Z,65.40
2022-09-26T23:29:50.934Z,64.76
2022-09-26T23:32:19.257Z,65.06
2022-09-26T23:34:47.243Z,65.31
2022-09-26T23:37:15.264Z,64.83
2022-09-26T23:39:43.304Z,64.93
2022-09-26T23:42:11.899Z,64.83
2022-09-26T23:44:39.929Z,64.83
2022-09-26T23:47:09.283Z,65.04
2022-09-26T23:49:37.449Z,64.76
2022-09-26T23:52:05.451Z,64.62
2022-09-26T23:54:33.452Z,65.23
2022-09-26T23:57:01.503Z,65.53
2022-09-26T23:59:29.528Z,66.01
